Weather reports worldwide

Advertisment
Edinburgh, United Kingdom (3160): temperature & dewpoint: 08.12.2019 23:00:00 - 14.12.2019 23:00:00 (GMT)Edinburgh, United Kingdom (3160): wind speed: 08.12.2019 23:00:00 - 14.12.2019 23:00:00 (GMT)Edinburgh, United Kingdom (3160): wind direction: 08.12.2019 23:00:00 - 14.12.2019 23:00:00 (GMT)Edinburgh, United Kingdom (3160): visibility: 08.12.2019 23:00:00 - 14.12.2019 23:00:00 (GMT)
Date & Time tt [°C] td [°C] ff [km/h] ff [kn] dd vv [km]
14.12.2019 23:00:00 3,0 2,0 31 17 SW 10
14.12.2019 22:00:00 2,0 2,0 34 18 WSW 6
14.12.2019 21:00:00 3,0 2,0 41 22 WSW 9
14.12.2019 20:00:00 4,0 2,0 42 23 SW 8
14.12.2019 19:00:00 4,0 1,0 44 24 SW 10
14.12.2019 18:00:00 4,0 2,0 41 22 SW 10
14.12.2019 17:00:00 4,0 2,0 31 17 SW 10
14.12.2019 16:00:00 4,0 2,0 31 17 SW 10
14.12.2019 15:00:00 5,0 2,0 35 19 SW 10
14.12.2019 14:00:00 5,0 3,0 34 18 SW 10
14.12.2019 13:00:00 5,0 3,0 39 21 SW 10
14.12.2019 12:00:00 4,0 3,0 31 17 WSW 10
14.12.2019 11:00:00 3,0 2,0 24 13 SW 10
14.12.2019 10:00:00 3,0 2,0 18 10 WSW 10
14.12.2019 09:00:00 3,0 3,0 21 11 WSW 10
14.12.2019 08:00:00 4,0 3,0 26 14 WSW 10
14.12.2019 07:00:00 3,0 3,0 21 11 WSW 10
14.12.2019 06:00:00 3,0 2,0 24 13 WSW 10
14.12.2019 05:00:00 4,0 3,0 22 12 WSW 10
14.12.2019 04:00:00 4,0 3,0 24 13 WSW 10
14.12.2019 03:00:00 4,0 4,0 18 10 WSW 10
14.12.2019 02:00:00 4,0 3,0 21 11 WSW 10
14.12.2019 01:00:00 4,0 3,0 11 6 WSW 10
14.12.2019 00:00:00 4,0 3,0 22 12 WSW 10
13.12.2019 23:00:00 4,0 3,0 21 11 SW 10
13.12.2019 22:00:00 2,0 2,0 11 6 WSW 10
13.12.2019 21:00:00 2,0 1,0 9 5 W 10
13.12.2019 20:00:00 2,0 2,0 5 3 W 10
13.12.2019 19:00:00 3,0 2,0 9 5 W 10
13.12.2019 18:00:00 3,0 2,0 15 8 WSW 10
13.12.2019 17:00:00 4,0 3,0 15 8 WSW 10
13.12.2019 16:00:00 5,0 4,0 18 10 WSW 10
13.12.2019 15:00:00 6,0 3,0 16 9 WSW 10
13.12.2019 14:00:00 6,0 4,0 24 13 WSW 10
13.12.2019 13:00:00 7,0 3,0 16 9 W 10
13.12.2019 12:00:00 6,0 3,0 18 10 WSW 10
13.12.2019 11:00:00 5,0 3,0 22 12 WSW 10
13.12.2019 10:00:00 4,0 3,0 21 11 WSW 10
13.12.2019 09:00:00 4,0 3,0 15 8 WSW 10
13.12.2019 08:00:00 5,0 3,0 15 8 WSW 10
13.12.2019 07:00:00 5,0 3,0 15 8 W 10
13.12.2019 06:00:00 4,0 3,0 15 8 WSW 10
13.12.2019 05:00:00 5,0 4,0 11 6 W 10
13.12.2019 04:00:00 4,0 4,0 11 6 W 10
13.12.2019 03:00:00 4,0 4,0 9 5 W 8
13.12.2019 02:00:00 4,0 4,0 11 6 W 6
13.12.2019 01:00:00 4,0 4,0 8 4 W 2,9
13.12.2019 00:00:00 3,0 3,0 8 4 W 7
12.12.2019 23:00:00 3,0 3,0 5 3 W 5
12.12.2019 22:00:00 3,0 3,0 4 2 WNW 9
12.12.2019 21:00:00 4,0 2,0 4 2 - 10
12.12.2019 20:00:00 3,0 3,0 0 0 N 10
12.12.2019 19:00:00 3,0 3,0 5 3 E 10
12.12.2019 18:00:00 4,0 2,0 13 7 E 10
12.12.2019 17:00:00 4,0 2,0 11 6 ESE 10
12.12.2019 16:00:00 4,0 3,0 9 5 E 10
12.12.2019 15:00:00 5,0 3,0 5 3 - 10
12.12.2019 14:00:00 5,0 3,0 11 6 ESE 10
12.12.2019 13:00:00 5,0 3,0 11 6 ENE 10
12.12.2019 12:00:00 3,0 2,0 11 6 ENE 10
12.12.2019 11:00:00 2,0 1,0 8 4 NE 10
12.12.2019 10:00:00 1,0 0,0 2 1 - 10
12.12.2019 09:00:00 1,0 0,0 4 2 NNE 10
12.12.2019 08:00:00 3,0 1,0 8 4 W 10
12.12.2019 07:00:00 3,0 1,0 8 4 W 10
12.12.2019 06:00:00 3,0 1,0 13 7 WSW 10
12.12.2019 05:00:00 2,0 0,0 15 8 WSW 10
12.12.2019 04:00:00 2,0 0,0 15 8 WSW 10
12.12.2019 03:00:00 2,0 1,0 21 11 SW 10
12.12.2019 02:00:00 2,0 1,0 18 10 WSW 10
12.12.2019 01:00:00 3,0 2,0 22 12 SW 10
12.12.2019 00:00:00 3,0 2,0 13 7 SSW 10
11.12.2019 23:00:00 3,0 1,0 16 9 SW 10
11.12.2019 22:00:00 3,0 2,0 22 12 SW 10
11.12.2019 21:00:00 3,0 2,0 18 10 SW 10
11.12.2019 20:00:00 3,0 2,0 26 14 SW 10
11.12.2019 19:00:00 3,0 2,0 26 14 SW 10
11.12.2019 18:00:00 3,0 2,0 28 15 SW 10
11.12.2019 17:00:00 4,0 2,0 28 15 SW 10
11.12.2019 16:00:00 4,0 3,0 22 12 SW 10
11.12.2019 15:00:00 4,0 2,0 29 16 WSW 10
11.12.2019 14:00:00 5,0 2,0 31 17 WSW 10
11.12.2019 13:00:00 6,0 3,0 29 16 WSW 10
11.12.2019 12:00:00 5,0 2,0 35 19 SW 10
11.12.2019 11:00:00 5,0 2,0 39 21 SW 10
11.12.2019 10:00:00 5,0 2,0 29 16 SW 10
11.12.2019 09:00:00 4,0 1,0 31 17 SW 10
11.12.2019 08:00:00 5,0 1,0 37 20 SW 10
11.12.2019 07:00:00 5,0 2,0 35 19 SW 10
11.12.2019 06:00:00 4,0 2,0 39 21 SW 10
11.12.2019 05:00:00 4,0 2,0 37 20 SW 10
11.12.2019 04:00:00 5,0 3,0 31 17 SW 10
11.12.2019 03:00:00 5,0 3,0 29 16 SW 8
11.12.2019 02:00:00 4,0 2,0 21 11 SW 10
11.12.2019 01:00:00 4,0 3,0 21 11 SW 10
11.12.2019 00:00:00 4,0 3,0 28 15 SW 10
10.12.2019 23:00:00 5,0 3,0 35 19 SW 10
10.12.2019 22:00:00 5,0 3,0 31 17 WSW 10
10.12.2019 21:00:00 5,0 3,0 26 14 WSW 10
10.12.2019 20:00:00 5,0 4,0 29 16 WSW 10
10.12.2019 19:00:00 6,0 4,0 34 18 WSW 10
10.12.2019 18:00:00 6,0 5,0 24 13 WSW 10
10.12.2019 17:00:00 7,0 5,0 35 19 W 9
10.12.2019 16:00:00 8,0 7,0 35 19 W 10
10.12.2019 15:00:00 13,0 11,0 50 27 SSW 10
10.12.2019 14:00:00 13,0 10,0 57 31 SSW 9
10.12.2019 13:00:00 12,0 10,0 50 27 SSW 7
10.12.2019 12:00:00 12,0 10,0 46 25 SSW 10
10.12.2019 11:00:00 11,0 8,0 57 31 SSW 10
10.12.2019 10:00:00 10,0 8,0 48 26 SSW 10
10.12.2019 09:00:00 9,0 7,0 41 22 SSW 10
10.12.2019 08:00:00 9,0 6,0 42 23 SSW 10
10.12.2019 07:00:00 9,0 6,0 50 27 SSW 10
10.12.2019 06:00:00 8,0 6,0 35 19 SSW 10
10.12.2019 05:00:00 8,0 6,0 35 19 S 10
10.12.2019 04:00:00 8,0 5,0 41 22 SSW 10
10.12.2019 03:00:00 8,0 4,0 37 20 SSW 10
10.12.2019 02:00:00 7,0 4,0 22 12 SW 10
10.12.2019 01:00:00 6,0 3,0 21 11 SW 10
10.12.2019 00:00:00 6,0 3,0 21 11 SSW 10
09.12.2019 23:00:00 5,0 2,0 18 10 SSW 10
09.12.2019 22:00:00 3,0 1,0 9 5 WSW 10
09.12.2019 21:00:00 3,0 1,0 11 6 WSW 10
09.12.2019 20:00:00 2,0 1,0 8 4 W 10
09.12.2019 19:00:00 2,0 1,0 13 7 WSW 10
09.12.2019 18:00:00 3,0 0,0 11 6 W 10
09.12.2019 17:00:00 2,0 0,0 11 6 WSW 10
09.12.2019 16:00:00 4,0 0,0 11 6 W 10
09.12.2019 15:00:00 5,0 1,0 13 7 W 10
09.12.2019 14:00:00 6,0 1,0 15 8 W 10
09.12.2019 13:00:00 6,0 2,0 18 10 SW 10
09.12.2019 12:00:00 6,0 2,0 15 8 SW 10
09.12.2019 11:00:00 5,0 1,0 13 7 W 10
09.12.2019 10:00:00 4,0 0,0 13 7 W 10
09.12.2019 09:00:00 4,0 0,0 13 7 W 10
09.12.2019 08:00:00 3,0 1,0 11 6 W 10
09.12.2019 07:00:00 5,0 1,0 15 8 W 10
09.12.2019 06:00:00 5,0 1,0 11 6 WNW 10
09.12.2019 05:00:00 6,0 1,0 15 8 NW 10
09.12.2019 04:00:00 7,0 2,0 18 10 NW 10
09.12.2019 03:00:00 7,0 2,0 18 10 NW 10
09.12.2019 02:00:00 6,0 3,0 16 9 WNW 10
09.12.2019 01:00:00 5,0 3,0 18 10 W 10
09.12.2019 00:00:00 4,0 3,0 9 5 WSW 10
08.12.2019 23:00:00 5,0 4,0 13 7 WSW 10

tt = temperature
td = dewpoint
ff = wind speed
dd = wind direction
vv = visibility

Next stations